Time;durP1;ratioP1;P1;durP2;ratioP2;P2;SDS_P1;SDS_P2;PMS_P1;PMS_P2;Temp;Humidity;BMP_temperature;BMP_pressure;BME280_temperature;BME280_humidity;BME280_pressure;Samples;Min_cycle;Max_cycle;Signal;HPM_P1;HPM_P2
2022/01/07 00:00:17;;;;;;;;;;;;;;;;;;7393805;19;19919;-54
2022/01/07 00:02:45;;;;;;;;;;;;;;;;;;7392789;19;19911;-51
2022/01/07 00:05:12;;;;;;;;;;;;;;;;;;7394157;19;20336;-53
2022/01/07 00:07:39;;;;;;;;;;;;;;;;;;7393319;19;19910;-54
2022/01/07 00:10:08;;;;;;;;;;;;;;;;;;7393621;19;19915;-54
2022/01/07 00:12:35;;;;;;;;;;;;;;;;;;7393382;19;19915;-51
2022/01/07 00:15:03;;;;;;;;;;;;;;;;;;7392764;19;19918;-53
2022/01/07 00:17:30;;;;;;;;;;;;;;;;;;7393622;19;20340;-57
2022/01/07 00:19:57;;;;;;;;;;;;;;;;;;7393910;19;19931;-50
2022/01/07 00:22:24;;;;;;;;;;;;;;;;;;7392807;19;19919;-47
2022/01/07 00:24:52;;;;;;;;;;;;;;;;;;7393617;19;19919;-47
2022/01/07 00:27:19;;;;;;;;;;;;;;;;;;7392672;19;19939;-50
2022/01/07 00:29:51;;;;;;;;;;;;;;;;;;7392964;19;19923;-48
2022/01/07 00:32:18;;;;;;;;;;;;;;;;;;7393537;19;19910;-50
2022/01/07 00:34:45;;;;;;;;;;;;;;;;;;7391750;19;19915;-52
2022/01/07 00:37:12;;;;;;;;;;;;;;;;;;7392679;19;19919;-50
2022/01/07 00:39:39;;;;;;;;;;;;;;;;;;7390463;19;19922;-49
2022/01/07 00:42:07;;;;;;;;;;;;;;;;;;7389517;19;19926;-49
2022/01/07 00:44:34;;;;;;;;;;;;;;;;;;7393040;19;19919;-47
2022/01/07 00:47:02;;;;;;;;;;;;;;;;;;7391979;19;19922;-46
2022/01/07 00:49:29;;;;;;;;;;;;;;;;;;7392928;19;20655;-47
2022/01/07 00:51:59;;;;;;;;;;;;;;;;;;7392671;19;19922;-46
2022/01/07 00:54:27;;;;;;;;;;;;;;;;;;7391083;19;19942;-46
2022/01/07 00:56:54;;;;;;;;;;;;;;;;;;7392278;19;19922;-47
2022/01/07 00:59:21;;;;;;;;;;;;;;;;;;7392388;19;19919;-52
2022/01/07 01:01:48;;;;;;;;;;;;;;;;;;7392227;19;20327;-46
2022/01/07 01:04:36;;;;;;;;;;;;;;;;;;7392245;19;19911;-53
2022/01/07 01:07:03;;;;;;;;;;;;;;;;;;7392556;19;19911;-48
2022/01/07 01:09:30;;;;;;;;;;;;;;;;;;7392492;19;19978;-48
2022/01/07 01:11:58;;;;;;;;;;;;;;;;;;7392390;19;19930;-48
2022/01/07 01:14:25;;;;;;;;;;;;;;;;;;7392710;19;19923;-44
2022/01/07 01:16:52;;;;;;;;;;;;;;;;;;7399685;19;19979;-46
2022/01/07 01:19:20;;;;;;;;;;;;;;;;;;7399592;19;19919;-46
2022/01/07 01:21:47;;;;;;;;;;;;;;;;;;7400827;19;20441;-47
2022/01/07 01:24:14;;;;;;;;;;;;;;;;;;7396528;19;20253;-49
2022/01/07 01:26:41;;;;;;;;;;;;;;;;;;7398601;19;19919;-47
2022/01/07 01:29:09;;;;;;;;;;;;;;;;;;7399450;19;20010;-45
2022/01/07 01:31:36;;;;;;;;;;;;;;;;;;7399288;19;19921;-47
2022/01/07 01:34:04;;;;;;;;;;;;;;;;;;7396890;19;19931;-47
2022/01/07 01:36:32;;;;;;;;;;;;;;;;;;7398264;19;19925;-47
2022/01/07 01:38:59;;;;;;;;;;;;;;;;;;7399505;19;19914;-46
2022/01/07 01:41:27;;;;;;;;;;;;;;;;;;7399868;19;19919;-46
2022/01/07 01:43:54;;;;;;;;;;;;;;;;;;7399108;19;19919;-48
2022/01/07 01:46:22;;;;;;;;;;;;;;;;;;7397565;19;19918;-48
2022/01/07 01:48:49;;;;;;;;;;;;;;;;;;7397694;19;19915;-54
2022/01/07 01:51:16;;;;;;;;;;;;;;;;;;7402067;19;19907;-51
2022/01/07 01:53:44;;;;;;;;;;;;;;;;;;7397148;19;19914;-52
2022/01/07 01:56:11;;;;;;;;;;;;;;;;;;7397696;19;19918;-61
2022/01/07 01:58:38;;;;;;;;;;;;;;;;;;7397675;19;19918;-55
2022/01/07 02:01:06;;;;;;;;;;;;;;;;;;7397619;19;19914;-51
2022/01/07 02:03:33;;;;;;;;;;;;;;;;;;7398015;19;20346;-52
2022/01/07 02:06:00;;;;;;;;;;;;;;;;;;7397692;19;20233;-65
2022/01/07 02:08:29;;;;;;;;;;;;;;;;;;7398047;19;20284;-53
2022/01/07 02:10:57;;;;;;;;;;;;;;;;;;7398867;19;19911;-47
2022/01/07 02:13:25;;;;;;;;;;;;;;;;;;7397045;19;19911;-49
2022/01/07 02:15:52;;;;;;;;;;;;;;;;;;7396778;19;19974;-59
2022/01/07 02:18:20;;;;;;;;;;;;;;;;;;7397620;19;19918;-52
2022/01/07 02:20:48;;;;;;;;;;;;;;;;;;7398122;19;19914;-49
2022/01/07 02:23:16;;;;;;;;;;;;;;;;;;7397656;19;19922;-59
2022/01/07 02:25:44;;;;;;;;;;;;;;;;;;7396749;19;19915;-51
2022/01/07 02:28:12;;;;;;;;;;;;;;;;;;7397006;19;20352;-50
2022/01/07 02:30:39;;;;;;;;;;;;;;;;;;7397470;19;19918;-58
2022/01/07 02:33:07;;;;;;;;;;;;;;;;;;7397257;19;20251;-57
2022/01/07 02:35:34;;;;;;;;;;;;;;;;;;7396665;19;19918;-50
2022/01/07 02:38:02;;;;;;;;;;;;;;;;;;7396992;19;20323;-55
2022/01/07 02:40:29;;;;;;;;;;;;;;;;;;7397169;19;19919;-60
2022/01/07 02:42:56;;;;;;;;;;;;;;;;;;7397018;19;19925;-56
2022/01/07 02:45:24;;;;;;;;;;;;;;;;;;7396921;19;19922;-59
2022/01/07 02:47:55;;;;;;;;;;;;;;;;;;7396673;19;20257;-60
2022/01/07 02:50:23;;;;;;;;;;;;;;;;;;7398543;19;19923;-57
2022/01/07 02:52:51;;;;;;;;;;;;;;;;;;7394450;19;19918;-54
2022/01/07 02:55:22;;;;;;;;;;;;;;;;;;7395829;19;19922;31
2022/01/07 02:57:49;;;;;;;;;;;;;;;;;;7396626;19;19974;-58
2022/01/07 03:00:19;;;;;;;;;;;;;;;;;;7396316;19;19915;-55
2022/01/07 03:02:47;;;;;;;;;;;;;;;;;;7396304;19;19915;-53
2022/01/07 03:05:15;;;;;;;;;;;;;;;;;;7395810;19;19974;-56
2022/01/07 03:07:42;;;;;;;;;;;;;;;;;;7395908;19;19942;-60
2022/01/07 03:10:09;;;;;;;;;;;;;;;;;;7395328;19;19918;-59
2022/01/07 03:12:37;;;;;;;;;;;;;;;;;;7395534;19;20336;-60
2022/01/07 03:15:05;;;;;;;;;;;;;;;;;;7393121;19;20332;-57
2022/01/07 03:17:32;;;;;;;;;;;;;;;;;;7395115;19;20272;-57
2022/01/07 03:19:59;;;;;;;;;;;;;;;;;;7395170;19;19939;-57
2022/01/07 03:22:26;;;;;;;;;;;;;;;;;;7395839;19;19923;-57
2022/01/07 03:25:02;;;;;;;;;;;;;;;;;;7396437;19;19915;-61
2022/01/07 03:27:29;;;;;;;;;;;;;;;;;;7394767;19;19993;-55
2022/01/07 03:29:56;;;;;;;;;;;;;;;;;;7393950;19;19919;-57
2022/01/07 03:32:24;;;;;;;;;;;;;;;;;;7394506;19;20253;-59
2022/01/07 03:34:52;;;;;;;;;;;;;;;;;;7393688;19;20338;-58
2022/01/07 03:37:19;;;;;;;;;;;;;;;;;;7391823;19;19959;-59
2022/01/07 03:39:46;;;;;;;;;;;;;;;;;;7394502;19;19923;-58
2022/01/07 03:42:14;;;;;;;;;;;;;;;;;;7393754;19;20389;-59
2022/01/07 03:44:41;;;;;;;;;;;;;;;;;;7394500;19;19939;-58
2022/01/07 03:47:08;;;;;;;;;;;;;;;;;;7394360;19;19919;-59
2022/01/07 03:49:36;;;;;;;;;;;;;;;;;;7394826;19;19911;-50
2022/01/07 03:52:03;;;;;;;;;;;;;;;;;;7393375;19;19935;-52
2022/01/07 03:54:30;;;;;;;;;;;;;;;;;;7391836;19;19986;-54
2022/01/07 03:56:58;;;;;;;;;;;;;;;;;;7392809;19;20254;-56
2022/01/07 03:59:25;;;;;;;;;;;;;;;;;;7393674;19;19911;-47
2022/01/07 04:01:52;;;;;;;;;;;;;;;;;;7393157;19;19938;-57
2022/01/07 04:04:19;;;;;;;;;;;;;;;;;;7392359;19;19926;-52
2022/01/07 04:06:46;;;;;;;;;;;;;;;;;;7392952;19;19911;-52
2022/01/07 04:09:13;;;;;;;;;;;;;;;;;;7392144;19;20340;-60
2022/01/07 04:11:41;;;;;;;;;;;;;;;;;;7393232;19;19911;-47
2022/01/07 04:14:08;;;;;;;;;;;;;;;;;;7392929;19;19943;-49
2022/01/07 04:16:35;;;;;;;;;;;;;;;;;;7391949;19;19918;-59
2022/01/07 04:19:02;;;;;;;;;;;;;;;;;;7392856;19;19915;-52
2022/01/07 04:21:29;;;;;;;;;;;;;;;;;;7393877;19;19919;-50
2022/01/07 04:23:56;;;;;;;;;;;;;;;;;;7392851;19;19934;-49
2022/01/07 04:26:23;;;;;;;;;;;;;;;;;;7393840;19;20000;-48
2022/01/07 04:28:51;;;;;;;;;;;;;;;;;;7390828;19;19926;-50
2022/01/07 04:31:18;;;;;;;;;;;;;;;;;;7392731;19;19919;-59
2022/01/07 04:33:45;;;;;;;;;;;;;;;;;;7392252;19;19932;-49
2022/01/07 04:36:12;;;;;;;;;;;;;;;;;;7392674;19;19919;-49
2022/01/07 04:38:39;;;;;;;;;;;;;;;;;;7392118;19;19922;-58
2022/01/07 04:41:06;;;;;;;;;;;;;;;;;;7393373;19;19911;-52
2022/01/07 04:43:33;;;;;;;;;;;;;;;;;;7392764;19;19919;-59
2022/01/07 04:46:01;;;;;;;;;;;;;;;;;;7392337;19;19926;-49
2022/01/07 04:48:28;;;;;;;;;;;;;;;;;;7390248;19;19919;-48
2022/01/07 04:50:55;;;;;;;;;;;;;;;;;;7394510;19;19970;-53
2022/01/07 04:53:22;;;;;;;;;;;;;;;;;;7392513;19;19922;-47
2022/01/07 04:55:50;;;;;;;;;;;;;;;;;;7390957;19;19922;-50
2022/01/07 04:58:17;;;;;;;;;;;;;;;;;;7392440;19;20268;-48
2022/01/07 05:00:44;;;;;;;;;;;;;;;;;;7367462;19;20205;-51
2022/01/07 05:03:12;;;;;;;;;;;;;;;;;;7390046;19;19955;-49
2022/01/07 05:05:40;;;;;;;;;;;;;;;;;;7391055;19;19918;-53
2022/01/07 05:08:08;;;;;;;;;;;;;;;;;;7391211;19;19922;-48
2022/01/07 05:10:37;;;;;;;;;;;;;;;;;;7392115;19;19915;-47
2022/01/07 05:13:04;;;;;;;;;;;;;;;;;;7391710;19;19918;-48
2022/01/07 05:15:31;;;;;;;;;;;;;;;;;;7390643;19;19911;-49
2022/01/07 05:17:59;;;;;;;;;;;;;;;;;;7392108;19;20318;-51
2022/01/07 05:20:26;;;;;;;;;;;;;;;;;;7391073;19;19919;-50
2022/01/07 05:22:53;;;;;;;;;;;;;;;;;;7390515;19;19926;-48
2022/01/07 05:25:21;;;;;;;;;;;;;;;;;;7390901;19;19919;-49
2022/01/07 05:27:48;;;;;;;;;;;;;;;;;;7391454;19;19907;-54
2022/01/07 05:30:15;;;;;;;;;;;;;;;;;;7391111;19;19922;-51
2022/01/07 05:32:42;;;;;;;;;;;;;;;;;;7391092;19;20336;-57
2022/01/07 05:35:09;;;;;;;;;;;;;;;;;;7389157;19;19923;-47
2022/01/07 05:37:37;;;;;;;;;;;;;;;;;;7391287;19;19918;-48
2022/01/07 05:40:04;;;;;;;;;;;;;;;;;;7391056;19;19919;-59
2022/01/07 05:42:31;;;;;;;;;;;;;;;;;;7391540;19;19914;-49
2022/01/07 05:44:59;;;;;;;;;;;;;;;;;;7391626;19;19907;-61
2022/01/07 05:47:26;;;;;;;;;;;;;;;;;;7388680;19;19942;-49
2022/01/07 05:49:53;;;;;;;;;;;;;;;;;;7390388;19;19915;-58
2022/01/07 05:52:20;;;;;;;;;;;;;;;;;;7393176;19;19967;-53
2022/01/07 05:54:48;;;;;;;;;;;;;;;;;;7388837;19;20364;-59
2022/01/07 05:57:16;;;;;;;;;;;;;;;;;;7389277;19;19929;-55
2022/01/07 05:59:43;;;;;;;;;;;;;;;;;;7389958;19;19918;-61
2022/01/07 06:02:10;;;;;;;;;;;;;;;;;;7397654;19;19915;-53
2022/01/07 06:04:37;;;;;;;;;;;;;;;;;;7397351;19;19979;-52
2022/01/07 06:07:04;;;;;;;;;;;;;;;;;;7397741;19;19911;-52
2022/01/07 06:09:33;;;;;;;;;;;;;;;;;;7395228;19;19919;-49
2022/01/07 06:12:01;;;;;;;;;;;;;;;;;;7397517;19;20360;-56
2022/01/07 06:14:29;;;;;;;;;;;;;;;;;;7397291;19;19914;-61
2022/01/07 06:16:56;;;;;;;;;;;;;;;;;;7396788;19;19922;-58
2022/01/07 06:19:23;;;;;;;;;;;;;;;;;;7397134;19;19978;-58
2022/01/07 06:21:50;;;;;;;;;;;;;;;;;;7394606;19;20323;-56
2022/01/07 06:24:17;;;;;;;;;;;;;;;;;;7396892;19;19910;-48
2022/01/07 06:26:45;;;;;;;;;;;;;;;;;;7395850;19;19919;-62
2022/01/07 06:29:12;;;;;;;;;;;;;;;;;;7397193;19;20362;-58
2022/01/07 06:31:39;;;;;;;;;;;;;;;;;;7397368;19;19919;-50
2022/01/07 06:34:06;;;;;;;;;;;;;;;;;;7396375;19;19923;-51
2022/01/07 06:36:33;;;;;;;;;;;;;;;;;;7397413;19;19960;-57
2022/01/07 06:39:01;;;;;;;;;;;;;;;;;;7399195;19;19926;-53
2022/01/07 06:41:28;;;;;;;;;;;;;;;;;;7397315;19;19914;-61
2022/01/07 06:43:55;;;;;;;;;;;;;;;;;;7396388;19;19915;-48
2022/01/07 06:46:22;;;;;;;;;;;;;;;;;;7396656;19;19939;-50
2022/01/07 06:48:49;;;;;;;;;;;;;;;;;;7395701;19;19930;-56
2022/01/07 06:51:17;;;;;;;;;;;;;;;;;;7398613;19;20332;-48
2022/01/07 06:53:44;;;;;;;;;;;;;;;;;;7396547;19;19919;-50
2022/01/07 06:56:11;;;;;;;;;;;;;;;;;;7394116;19;19922;-58
2022/01/07 06:58:38;;;;;;;;;;;;;;;;;;7396397;19;19911;-56
2022/01/07 07:01:08;;;;;;;;;;;;;;;;;;7396000;19;19915;-50
2022/01/07 07:03:36;;;;;;;;;;;;;;;;;;7395318;19;19927;-53
2022/01/07 07:06:03;;;;;;;;;;;;;;;;;;7396084;19;19928;-53
2022/01/07 07:08:30;;;;;;;;;;;;;;;;;;7394916;19;20324;-56
2022/01/07 07:10:58;;;;;;;;;;;;;;;;;;7395749;19;19918;-53
2022/01/07 07:13:25;;;;;;;;;;;;;;;;;;7393459;19;19938;-62
2022/01/07 07:15:52;;;;;;;;;;;;;;;;;;7390867;19;20479;-53
2022/01/07 07:18:19;;;;;;;;;;;;;;;;;;7395811;19;19946;-56
2022/01/07 07:20:46;;;;;;;;;;;;;;;;;;7395429;19;19923;-63
2022/01/07 07:23:14;;;;;;;;;;;;;;;;;;7394931;19;19943;-61
2022/01/07 07:25:41;;;;;;;;;;;;;;;;;;7395191;19;19925;-57
2022/01/07 07:28:08;;;;;;;;;;;;;;;;;;7395211;19;19918;-47
2022/01/07 07:30:39;;;;;;;;;;;;;;;;;;7394664;19;19986;-48
2022/01/07 07:38:36;;;;;;;;;;;;;;;;;;7393273;19;19976;-58
2022/01/07 07:41:06;;;;;;;;;;;;;;;;;;7393562;19;19923;-57
2022/01/07 07:43:33;;;;;;;;;;;;;;;;;;7394802;19;19914;-49
2022/01/07 07:46:01;;;;;;;;;;;;;;;;;;7394044;19;19926;-60
2022/01/07 07:48:29;;;;;;;;;;;;;;;;;;7393046;19;19925;-61
2022/01/07 07:50:57;;;;;;;;;;;;;;;;;;7396862;19;19994;-52
2022/01/07 07:53:24;;;;;;;;;;;;;;;;;;7393796;19;19921;-61
2022/01/07 07:55:53;;;;;;;;;;;;;;;;;;7393105;19;19926;-61
2022/01/07 07:58:21;;;;;;;;;;;;;;;;;;7394120;19;20336;-61
2022/01/07 08:00:49;;;;;;;;;;;;;;;;;;7393291;19;19935;-60
2022/01/07 08:03:17;;;;;;;;;;;;;;;;;;7392665;19;20405;-48
2022/01/07 08:05:44;;;;;;;;;;;;;;;;;;7392782;19;19915;-60
2022/01/07 08:08:11;;;;;;;;;;;;;;;;;;7393232;19;19920;-60
2022/01/07 08:10:46;;;;;;;;;;;;;;;;;;7392984;19;19915;-48
2022/01/07 08:15:58;;;;;;;;;;;;;;;;;;7392465;19;19982;-49
2022/01/07 08:18:27;;;;;;;;;;;;;;;;;;7392412;19;19918;-61
2022/01/07 08:20:55;;;;;;;;;;;;;;;;;;7392874;19;19914;-62
2022/01/07 08:23:24;;;;;;;;;;;;;;;;;;7390700;19;19927;-49
2022/01/07 08:25:51;;;;;;;;;;;;;;;;;;7392879;19;19914;-50
2022/01/07 08:28:19;;;;;;;;;;;;;;;;;;7393178;19;19922;-49
2022/01/07 08:31:24;;;;;;;;;;;;;;;;;;7391726;19;19942;-61
2022/01/07 08:36:35;;;;;;;;;;;;;;;;;;7389617;19;20248;-55
2022/01/07 08:39:06;;;;;;;;;;;;;;;;;;7392439;19;19915;-52
2022/01/07 08:41:34;;;;;;;;;;;;;;;;;;7392832;19;19919;-57
2022/01/07 08:44:02;;;;;;;;;;;;;;;;;;7393623;19;19918;-60
2022/01/07 08:46:30;;;;;;;;;;;;;;;;;;7392592;19;19911;-57
2022/01/07 08:48:58;;;;;;;;;;;;;;;;;;7391591;19;19922;-56
2022/01/07 08:51:28;;;;;;;;;;;;;;;;;;7396396;19;19919;-61
2022/01/07 08:53:56;;;;;;;;;;;;;;;;;;7390995;19;19911;-54
2022/01/07 08:56:24;;;;;;;;;;;;;;;;;;7390231;19;20360;-55
2022/01/07 08:58:52;;;;;;;;;;;;;;;;;;7392083;19;19919;-53
2022/01/07 09:01:19;;;;;;;;;;;;;;;;;;7391946;19;19921;-57
2022/01/07 09:03:47;;;;;;;;;;;;;;;;;;7391499;19;19923;-61
2022/01/07 09:06:14;;;;;;;;;;;;;;;;;;7391827;19;19918;-49
2022/01/07 09:08:41;;;;;;;;;;;;;;;;;;7390991;19;19927;-50
2022/01/07 09:11:08;;;;;;;;;;;;;;;;;;7389554;19;19950;-56
2022/01/07 09:13:35;;;;;;;;;;;;;;;;;;7391178;19;19919;-62
2022/01/07 09:16:03;;;;;;;;;;;;;;;;;;7390667;19;19923;-48
2022/01/07 09:18:32;;;;;;;;;;;;;;;;;;7391185;19;19915;-48
2022/01/07 09:20:59;;;;;;;;;;;;;;;;;;7391569;19;20693;-52
2022/01/07 09:23:26;;;;;;;;;;;;;;;;;;7390700;19;19915;-54
2022/01/07 09:25:53;;;;;;;;;;;;;;;;;;7391621;19;19931;-57
2022/01/07 09:28:21;;;;;;;;;;;;;;;;;;7391380;19;19915;-48
2022/01/07 09:30:49;;;;;;;;;;;;;;;;;;7390463;19;20380;-59
2022/01/07 09:33:16;;;;;;;;;;;;;;;;;;7390859;19;19939;-48
2022/01/07 09:35:44;;;;;;;;;;;;;;;;;;7392553;19;19922;-61
2022/01/07 09:38:11;;;;;;;;;;;;;;;;;;7397771;19;20359;-61
2022/01/07 09:40:39;;;;;;;;;;;;;;;;;;7396171;19;19997;-53
2022/01/07 09:43:07;;;;;;;;;;;;;;;;;;7398213;19;19919;-48
2022/01/07 09:45:35;;;;;;;;;;;;;;;;;;7398353;19;20375;-49
2022/01/07 09:48:03;;;;;;;;;;;;;;;;;;7398306;19;20261;-49
2022/01/07 09:50:31;;;;;;;;;;;;;;;;;;7400938;19;19939;-60
2022/01/07 09:53:03;;;;;;;;;;;;;;;;;;7398250;19;19923;-49
2022/01/07 09:55:30;;;;;;;;;;;;;;;;;;7397250;19;20336;-60
2022/01/07 09:57:57;;;;;;;;;;;;;;;;;;7397129;19;20364;-58
2022/01/07 10:00:30;;;;;;;;;;;;;;;;;;7396105;19;19927;-61
2022/01/07 10:02:59;;;;;;;;;;;;;;;;;;7398445;19;20358;-50
2022/01/07 10:05:27;;;;;;;;;;;;;;;;;;7397779;19;19929;-50
2022/01/07 10:07:55;;;;;;;;;;;;;;;;;;7397254;19;19960;-49
2022/01/07 10:10:22;;;;;;;;;;;;;;;;;;7396642;19;19925;-57
2022/01/07 10:12:52;;;;;;;;;;;;;;;;;;7394860;19;20343;-57
2022/01/07 10:15:21;;;;;;;;;;;;;;;;;;7396934;19;19919;-60
2022/01/07 10:17:56;;;;;;;;;;;;;;;;;;7395700;19;20338;-47
2022/01/07 10:20:25;;;;;;;;;;;;;;;;;;7395602;19;19923;-61
2022/01/07 10:22:54;;;;;;;;;;;;;;;;;;7395990;19;19932;-61
2022/01/07 10:25:23;;;;;;;;;;;;;;;;;;7394141;19;19994;-60
2022/01/07 10:27:50;;;;;;;;;;;;;;;;;;7395974;19;19938;-50
2022/01/07 10:30:25;;;;;;;;;;;;;;;;;;7396262;19;20348;-59
2022/01/07 10:32:54;;;;;;;;;;;;;;;;;;7396264;19;19926;-52
2022/01/07 10:35:25;;;;;;;;;;;;;;;;;;7395061;19;19915;-58
2022/01/07 10:37:52;;;;;;;;;;;;;;;;;;7395782;19;19919;-56
2022/01/07 10:40:19;;;;;;;;;;;;;;;;;;7400206;19;19942;-59
2022/01/07 10:42:46;;;;;;;;;;;;;;;;;;7395998;19;19915;-59
2022/01/07 10:45:14;;;;;;;;;;;;;;;;;;7396549;19;19935;-52
2022/01/07 10:47:41;;;;;;;;;;;;;;;;;;7394134;19;19922;-52
2022/01/07 10:50:13;;;;;;;;;;;;;;;;;;7394944;19;19918;-62
2022/01/07 10:52:40;;;;;;;;;;;;;;;;;;7395257;19;19929;-51
2022/01/07 10:55:12;;;;;;;;;;;;;;;;;;7395989;19;19974;-61
2022/01/07 10:57:41;;;;;;;;;;;;;;;;;;7395678;19;20331;-62
2022/01/07 11:00:10;;;;;;;;;;;;;;;;;;7396235;19;19919;-53
2022/01/07 11:02:39;;;;;;;;;;;;;;;;;;7396132;19;19943;-60
2022/01/07 11:05:07;;;;;;;;;;;;;;;;;;7395688;19;19922;-61
2022/01/07 11:07:35;;;;;;;;;;;;;;;;;;7396356;19;19919;-51
2022/01/07 11:10:04;;;;;;;;;;;;;;;;;;7395660;19;19919;-53
2022/01/07 11:12:32;;;;;;;;;;;;;;;;;;7396295;19;19915;-65
2022/01/07 11:15:00;;;;;;;;;;;;;;;;;;7395747;19;19952;-61
2022/01/07 11:17:27;;;;;;;;;;;;;;;;;;7391952;19;19923;-49
2022/01/07 11:19:55;;;;;;;;;;;;;;;;;;7395244;19;19939;-46
2022/01/07 11:22:24;;;;;;;;;;;;;;;;;;7395290;19;19935;-47
2022/01/07 11:24:54;;;;;;;;;;;;;;;;;;7395531;19;19917;-50
2022/01/07 11:27:28;;;;;;;;;;;;;;;;;;7394771;19;20360;-52
2022/01/07 11:30:08;;;;;;;;;;;;;;;;;;7394045;19;20337;-54
2022/01/07 11:32:36;;;;;;;;;;;;;;;;;;7394682;19;19910;-54
2022/01/07 11:35:19;;;;;;;;;;;;;;;;;;7393965;19;19914;-52
2022/01/07 11:37:50;;;;;;;;;;;;;;;;;;7394511;19;19915;-64
2022/01/07 11:40:33;;;;;;;;;;;;;;;;;;7393323;19;19915;-55
2022/01/07 11:43:00;;;;;;;;;;;;;;;;;;7394850;19;19927;-61
2022/01/07 11:45:33;;;;;;;;;;;;;;;;;;7395016;19;19915;-61
2022/01/07 11:48:14;;;;;;;;;;;;;;;;;;7394778;19;19999;-56
2022/01/07 11:51:07;;;;;;;;;;;;;;;;;;7394659;19;19947;-52
2022/01/07 11:53:41;;;;;;;;;;;;;;;;;;7393864;19;19922;-53
2022/01/07 11:56:09;;;;;;;;;;;;;;;;;;7393709;19;19918;-50
2022/01/07 11:58:40;;;;;;;;;;;;;;;;;;7392878;19;20010;-60
2022/01/07 12:01:22;;;;;;;;;;;;;;;;;;7394065;19;19919;-50
2022/01/07 12:03:49;;;;;;;;;;;;;;;;;;7394096;19;20387;-51
2022/01/07 12:06:26;;;;;;;;;;;;;;;;;;7394261;19;19915;-58
2022/01/07 12:08:56;;;;;;;;;;;;;;;;;;7392579;19;19919;-53
2022/01/07 12:11:24;;;;;;;;;;;;;;;;;;7392503;19;19915;-52
2022/01/07 12:13:52;;;;;;;;;;;;;;;;;;7392563;19;19927;-48
2022/01/07 12:16:20;;;;;;;;;;;;;;;;;;7392874;19;19958;-50
2022/01/07 12:18:47;;;;;;;;;;;;;;;;;;7393126;19;19919;-51
2022/01/07 12:21:17;;;;;;;;;;;;;;;;;;7392627;19;19970;-47
2022/01/07 12:23:44;;;;;;;;;;;;;;;;;;7392651;19;19932;-52
2022/01/07 12:26:11;;;;;;;;;;;;;;;;;;7393698;19;19930;-51
2022/01/07 12:28:45;;;;;;;;;;;;;;;;;;7393249;19;19915;-57
2022/01/07 12:31:12;;;;;;;;;;;;;;;;;;7392715;19;19938;-52
2022/01/07 12:33:49;;;;;;;;;;;;;;;;;;7391775;19;19935;-51
2022/01/07 12:36:26;;;;;;;;;;;;;;;;;;7392802;19;19923;-54
2022/01/07 12:39:04;;;;;;;;;;;;;;;;;;7390886;19;19955;-60
2022/01/07 12:41:31;;;;;;;;;;;;;;;;;;7392879;19;19927;-55
2022/01/07 12:44:12;;;;;;;;;;;;;;;;;;7392071;19;19923;-55
2022/01/07 12:46:40;;;;;;;;;;;;;;;;;;7392951;19;19919;-54
2022/01/07 12:49:08;;;;;;;;;;;;;;;;;;7392267;19;19984;-53
2022/01/07 12:51:36;;;;;;;;;;;;;;;;;;7394826;19;19918;-56
2022/01/07 12:54:05;;;;;;;;;;;;;;;;;;7391653;19;19923;-51
2022/01/07 12:56:36;;;;;;;;;;;;;;;;;;7391060;19;20015;-51
2022/01/07 12:59:16;;;;;;;;;;;;;;;;;;7392622;19;19919;-50
2022/01/07 13:01:44;;;;;;;;;;;;;;;;;;7391207;19;19918;-54
2022/01/07 13:04:14;;;;;;;;;;;;;;;;;;7390981;19;19919;-52
2022/01/07 13:06:49;;;;;;;;;;;;;;;;;;7392114;19;19911;-57
2022/01/07 13:09:27;;;;;;;;;;;;;;;;;;7391104;19;19915;-52
2022/01/07 13:11:54;;;;;;;;;;;;;;;;;;7391190;19;19919;-61
2022/01/07 13:14:23;;;;;;;;;;;;;;;;;;7391282;19;20376;-54
2022/01/07 13:16:51;;;;;;;;;;;;;;;;;;7390572;19;19944;-57
2022/01/07 13:19:19;;;;;;;;;;;;;;;;;;7391744;19;19922;-60
2022/01/07 13:21:49;;;;;;;;;;;;;;;;;;7391730;19;19942;-47
2022/01/07 13:24:18;;;;;;;;;;;;;;;;;;7390692;19;19943;-59
2022/01/07 13:26:51;;;;;;;;;;;;;;;;;;7388994;19;19921;-49
2022/01/07 13:29:20;;;;;;;;;;;;;;;;;;7389078;19;20345;-50
2022/01/07 13:31:58;;;;;;;;;;;;;;;;;;7390287;19;19919;-50
2022/01/07 13:34:26;;;;;;;;;;;;;;;;;;7390883;19;19915;-56
2022/01/07 13:37:04;;;;;;;;;;;;;;;;;;7388742;19;19944;-53
2022/01/07 13:39:37;;;;;;;;;;;;;;;;;;7390434;19;19915;-50
2022/01/07 13:42:09;;;;;;;;;;;;;;;;;;7389956;19;19919;-51
2022/01/07 13:44:48;;;;;;;;;;;;;;;;;;7390292;19;19922;-51
2022/01/07 13:47:32;;;;;;;;;;;;;;;;;;7390664;19;19915;-50
2022/01/07 13:50:19;;;;;;;;;;;;;;;;;;7391082;19;20270;-49
2022/01/07 13:52:46;;;;;;;;;;;;;;;;;;7390259;19;19922;-59
2022/01/07 13:55:28;;;;;;;;;;;;;;;;;;7388932;19;19926;-49
2022/01/07 13:58:07;;;;;;;;;;;;;;;;;;7388641;19;20466;-57
2022/01/07 14:00:38;;;;;;;;;;;;;;;;;;7390828;19;19968;-59
2022/01/07 14:03:06;;;;;;;;;;;;;;;;;;7390779;19;19915;-54
2022/01/07 14:05:34;;;;;;;;;;;;;;;;;;7389816;19;19935;-54
2022/01/07 14:08:06;;;;;;;;;;;;;;;;;;7390306;19;19925;-58
2022/01/07 14:10:39;;;;;;;;;;;;;;;;;;7389183;19;19954;-53
2022/01/07 14:13:12;;;;;;;;;;;;;;;;;;7389024;19;19919;-53
2022/01/07 14:15:44;;;;;;;;;;;;;;;;;;7389333;19;19914;-56
2022/01/07 14:18:15;;;;;;;;;;;;;;;;;;7387474;19;19911;-53
2022/01/07 14:20:47;;;;;;;;;;;;;;;;;;7390066;19;19958;-60
2022/01/07 14:23:16;;;;;;;;;;;;;;;;;;7397913;19;19994;-57
2022/01/07 14:25:44;;;;;;;;;;;;;;;;;;7396190;19;19911;-52
2022/01/07 14:28:13;;;;;;;;;;;;;;;;;;7397530;19;19938;-53
2022/01/07 14:30:41;;;;;;;;;;;;;;;;;;7396400;19;19939;-55
2022/01/07 14:33:08;;;;;;;;;;;;;;;;;;7396993;19;20359;-57
2022/01/07 14:35:35;;;;;;;;;;;;;;;;;;7394689;19;19937;-56
2022/01/07 14:38:04;;;;;;;;;;;;;;;;;;7394603;19;19919;-58
2022/01/07 14:40:31;;;;;;;;;;;;;;;;;;7395606;19;19929;-52
2022/01/07 14:42:58;;;;;;;;;;;;;;;;;;7397045;19;19925;-57
2022/01/07 14:45:25;;;;;;;;;;;;;;;;;;7396607;19;20015;-56
2022/01/07 14:47:53;;;;;;;;;;;;;;;;;;7396333;19;19917;-59
2022/01/07 14:50:20;;;;;;;;;;;;;;;;;;7398084;19;19911;-56
2022/01/07 14:52:50;;;;;;;;;;;;;;;;;;7395088;19;19919;-52
2022/01/07 14:55:21;;;;;;;;;;;;;;;;;;7394702;19;20280;-57
2022/01/07 14:57:49;;;;;;;;;;;;;;;;;;7394247;19;19915;-54
2022/01/07 15:00:18;;;;;;;;;;;;;;;;;;7396261;19;19911;-51
2022/01/07 15:02:46;;;;;;;;;;;;;;;;;;7395722;19;19939;-60
2022/01/07 15:05:16;;;;;;;;;;;;;;;;;;7395124;19;19928;-53
2022/01/07 15:08:03;;;;;;;;;;;;;;;;;;7395082;19;20372;-58
2022/01/07 15:10:30;;;;;;;;;;;;;;;;;;7395214;19;19939;-57
2022/01/07 15:12:57;;;;;;;;;;;;;;;;;;7395441;19;19939;-53
2022/01/07 15:18:10;;;;;;;;;;;;;;;;;;7390044;19;20276;-54
2022/01/07 15:20:37;;;;;;;;;;;;;;;;;;7391139;19;19923;-52
2022/01/07 15:23:05;;;;;;;;;;;;;;;;;;7391542;19;19915;-53
2022/01/07 15:25:33;;;;;;;;;;;;;;;;;;7390612;19;19923;-53
2022/01/07 15:28:00;;;;;;;;;;;;;;;;;;7395573;19;19919;-60
2022/01/07 15:30:27;;;;;;;;;;;;;;;;;;7391285;19;19915;-52
2022/01/07 15:32:55;;;;;;;;;;;;;;;;;;7386548;19;19929;-55
2022/01/07 15:35:24;;;;;;;;;;;;;;;;;;7390657;19;19914;-55
2022/01/07 15:37:52;;;;;;;;;;;;;;;;;;7389697;19;19926;-55
2022/01/07 15:40:19;;;;;;;;;;;;;;;;;;7391287;19;19967;-56
2022/01/07 15:42:46;;;;;;;;;;;;;;;;;;7390534;19;19926;-52
2022/01/07 15:45:14;;;;;;;;;;;;;;;;;;7391232;19;19925;-56
2022/01/07 15:47:41;;;;;;;;;;;;;;;;;;7391744;19;19919;-61
2022/01/07 15:50:09;;;;;;;;;;;;;;;;;;7390467;19;20225;-55
2022/01/07 15:52:37;;;;;;;;;;;;;;;;;;7389536;19;19923;-58
2022/01/07 15:55:05;;;;;;;;;;;;;;;;;;7389782;19;19919;-53
2022/01/07 15:57:33;;;;;;;;;;;;;;;;;;7393089;19;19961;-53
2022/01/07 16:00:00;;;;;;;;;;;;;;;;;;7394134;19;19911;-50
2022/01/07 16:02:37;;;;;;;;;;;;;;;;;;7393057;19;19962;-55
2022/01/07 16:05:05;;;;;;;;;;;;;;;;;;7393945;19;19978;-57
2022/01/07 16:07:32;;;;;;;;;;;;;;;;;;7393433;19;20328;-55
2022/01/07 16:09:59;;;;;;;;;;;;;;;;;;7397808;19;19947;-51
2022/01/07 16:12:26;;;;;;;;;;;;;;;;;;7392619;19;20016;-48
2022/01/07 16:14:53;;;;;;;;;;;;;;;;;;7392682;19;19919;-46
2022/01/07 16:17:21;;;;;;;;;;;;;;;;;;7392454;19;19998;-52
2022/01/07 16:19:48;;;;;;;;;;;;;;;;;;7391763;19;19919;-50
2022/01/07 16:22:15;;;;;;;;;;;;;;;;;;7393340;19;19938;-48
2022/01/07 16:24:43;;;;;;;;;;;;;;;;;;7393068;19;19915;-59
2022/01/07 16:27:12;;;;;;;;;;;;;;;;;;7392761;19;19992;-49
2022/01/07 16:29:39;;;;;;;;;;;;;;;;;;7393445;19;19946;-50
2022/01/07 16:32:07;;;;;;;;;;;;;;;;;;7392418;19;19919;-53
2022/01/07 16:34:34;;;;;;;;;;;;;;;;;;7393078;19;19950;-59
2022/01/07 16:37:01;;;;;;;;;;;;;;;;;;7396835;19;19921;-58
2022/01/07 16:39:28;;;;;;;;;;;;;;;;;;7393247;19;20033;-55
2022/01/07 16:41:56;;;;;;;;;;;;;;;;;;7392163;19;19930;-54
2022/01/07 16:44:24;;;;;;;;;;;;;;;;;;7391348;19;19918;-53
2022/01/07 16:46:51;;;;;;;;;;;;;;;;;;7388018;19;20004;-50
2022/01/07 16:49:18;;;;;;;;;;;;;;;;;;7390916;19;20280;-52
2022/01/07 16:51:55;;;;;;;;;;;;;;;;;;7391995;19;19929;-59
2022/01/07 16:54:23;;;;;;;;;;;;;;;;;;7391320;19;19914;-54
2022/01/07 16:56:50;;;;;;;;;;;;;;;;;;7390742;19;20340;-55
2022/01/07 16:59:17;;;;;;;;;;;;;;;;;;7392020;19;19931;-55
2022/01/07 17:01:44;;;;;;;;;;;;;;;;;;7391585;19;19915;-49
2022/01/07 17:04:12;;;;;;;;;;;;;;;;;;7392004;19;19915;-47
2022/01/07 17:06:39;;;;;;;;;;;;;;;;;;7391504;19;19931;-51
2022/01/07 17:09:07;;;;;;;;;;;;;;;;;;7392180;19;19919;-52